sensor_id;sensor_type;location;lat;lon;timestamp;pressure;altitude;pressure_sealevel;temperature;humidity
78485;BME280;67773;50.806;8.776;2023-05-27T00:02:11;100730.19;;;10.34;67.01
78485;BME280;67773;50.806;8.776;2023-05-27T00:04:36;100732.19;;;10.27;66.85
78485;BME280;67773;50.806;8.776;2023-05-27T00:07:02;100723.50;;;10.21;66.72
78485;BME280;67773;50.806;8.776;2023-05-27T00:09:27;100728.13;;;10.16;67.22
78485;BME280;67773;50.806;8.776;2023-05-27T00:11:52;100733.59;;;10.09;67.23
78485;BME280;67773;50.806;8.776;2023-05-27T00:14:17;100729.16;;;10.10;67.23
78485;BME280;67773;50.806;8.776;2023-05-27T00:16:43;100732.25;;;9.96;67.21
78485;BME280;67773;50.806;8.776;2023-05-27T00:19:08;100734.00;;;9.97;67.51
78485;BME280;67773;50.806;8.776;2023-05-27T00:21:33;100729.81;;;9.90;67.86
78485;BME280;67773;50.806;8.776;2023-05-27T00:23:59;100725.63;;;9.83;68.01
78485;BME280;67773;50.806;8.776;2023-05-27T00:26:25;100725.63;;;9.83;68.29
78485;BME280;67773;50.806;8.776;2023-05-27T00:28:51;100713.28;;;9.82;68.59
78485;BME280;67773;50.806;8.776;2023-05-27T00:31:16;100715.28;;;9.74;68.43
78485;BME280;67773;50.806;8.776;2023-05-27T00:33:41;100726.13;;;9.66;69.51
78485;BME280;67773;50.806;8.776;2023-05-27T00:36:09;100727.13;;;9.62;69.63
78485;BME280;67773;50.806;8.776;2023-05-27T00:38:34;100733.25;;;9.64;68.78
78485;BME280;67773;50.806;8.776;2023-05-27T00:41:00;100731.56;;;9.62;69.59
78485;BME280;67773;50.806;8.776;2023-05-27T00:43:28;100732.72;;;9.53;69.74
78485;BME280;67773;50.806;8.776;2023-05-27T00:45:55;100732.81;;;9.50;69.95
78485;BME280;67773;50.806;8.776;2023-05-27T00:48:21;100735.53;;;9.47;70.60
78485;BME280;67773;50.806;8.776;2023-05-27T00:50:46;100737.41;;;9.43;70.12
78485;BME280;67773;50.806;8.776;2023-05-27T00:53:11;100727.78;;;9.41;70.15
78485;BME280;67773;50.806;8.776;2023-05-27T00:55:37;100730.38;;;9.42;70.55
78485;BME280;67773;50.806;8.776;2023-05-27T00:58:02;100737.38;;;9.45;70.35
78485;BME280;67773;50.806;8.776;2023-05-27T01:00:29;100732.22;;;9.40;70.92
78485;BME280;67773;50.806;8.776;2023-05-27T01:02:56;100730.50;;;9.38;70.53
78485;BME280;67773;50.806;8.776;2023-05-27T01:05:22;100729.63;;;9.39;71.12
78485;BME280;67773;50.806;8.776;2023-05-27T01:08:02;100727.28;;;9.28;71.33
78485;BME280;67773;50.806;8.776;2023-05-27T01:10:52;100731.59;;;9.31;72.18
78485;BME280;67773;50.806;8.776;2023-05-27T01:13:42;100736.09;;;9.29;71.88
78485;BME280;67773;50.806;8.776;2023-05-27T01:16:12;100733.66;;;9.21;71.00
78485;BME280;67773;50.806;8.776;2023-05-27T01:18:39;100736.56;;;9.12;71.14
78485;BME280;67773;50.806;8.776;2023-05-27T01:21:15;100732.06;;;9.14;72.47
78485;BME280;67773;50.806;8.776;2023-05-27T01:23:42;100725.13;;;9.10;72.01
78485;BME280;67773;50.806;8.776;2023-05-27T01:26:07;100720.88;;;9.04;72.71
78485;BME280;67773;50.806;8.776;2023-05-27T01:28:32;100719.28;;;8.99;72.84
78485;BME280;67773;50.806;8.776;2023-05-27T01:31:30;100722.13;;;8.91;72.53
78485;BME280;67773;50.806;8.776;2023-05-27T01:34:03;100723.19;;;8.84;73.46
78485;BME280;67773;50.806;8.776;2023-05-27T01:36:47;100722.22;;;8.88;73.63
78485;BME280;67773;50.806;8.776;2023-05-27T01:39:14;100733.91;;;8.79;72.86
78485;BME280;67773;50.806;8.776;2023-05-27T01:41:41;100728.72;;;8.76;73.16
78485;BME280;67773;50.806;8.776;2023-05-27T01:44:07;100729.59;;;8.75;73.73
78485;BME280;67773;50.806;8.776;2023-05-27T01:46:33;100726.09;;;8.75;72.63
78485;BME280;67773;50.806;8.776;2023-05-27T01:48:59;100731.38;;;8.76;73.69
78485;BME280;67773;50.806;8.776;2023-05-27T01:51:24;100721.94;;;8.66;73.45
78485;BME280;67773;50.806;8.776;2023-05-27T01:53:50;100722.84;;;8.63;73.34
78485;BME280;67773;50.806;8.776;2023-05-27T01:56:15;100721.84;;;8.69;74.06
78485;BME280;67773;50.806;8.776;2023-05-27T01:58:40;100718.69;;;8.55;73.97
78485;BME280;67773;50.806;8.776;2023-05-27T02:01:06;100725.97;;;8.47;74.16
78485;BME280;67773;50.806;8.776;2023-05-27T02:03:31;100716.47;;;8.38;74.82
78485;BME280;67773;50.806;8.776;2023-05-27T02:05:56;100719.19;;;8.33;74.23
78485;BME280;67773;50.806;8.776;2023-05-27T02:08:22;100713.09;;;8.30;74.75
78485;BME280;67773;50.806;8.776;2023-05-27T02:10:47;100707.94;;;8.25;74.85
78485;BME280;67773;50.806;8.776;2023-05-27T02:13:13;100709.63;;;8.28;75.01
78485;BME280;67773;50.806;8.776;2023-05-27T02:15:38;100710.66;;;8.22;75.50
78485;BME280;67773;50.806;8.776;2023-05-27T02:18:04;100708.25;;;8.13;75.30
78485;BME280;67773;50.806;8.776;2023-05-27T02:20:30;100715.50;;;8.05;75.58
78485;BME280;67773;50.806;8.776;2023-05-27T02:22:56;100709.38;;;8.03;75.39
78485;BME280;67773;50.806;8.776;2023-05-27T02:25:21;100712.13;;;7.98;76.29
78485;BME280;67773;50.806;8.776;2023-05-27T02:27:46;100719.19;;;7.98;76.16
78485;BME280;67773;50.806;8.776;2023-05-27T02:30:16;100710.47;;;7.94;76.37
78485;BME280;67773;50.806;8.776;2023-05-27T02:32:42;100715.00;;;7.88;77.24
78485;BME280;67773;50.806;8.776;2023-05-27T02:35:07;100715.84;;;7.90;76.75
78485;BME280;67773;50.806;8.776;2023-05-27T02:37:34;100713.94;;;7.96;77.37
78485;BME280;67773;50.806;8.776;2023-05-27T02:39:59;100713.91;;;7.98;76.86
78485;BME280;67773;50.806;8.776;2023-05-27T02:42:24;100712.97;;;7.99;76.67
78485;BME280;67773;50.806;8.776;2023-05-27T02:44:50;100709.59;;;7.94;76.92
78485;BME280;67773;50.806;8.776;2023-05-27T02:47:15;100714.88;;;7.94;77.04
78485;BME280;67773;50.806;8.776;2023-05-27T02:49:40;100712.78;;;8.08;75.66
78485;BME280;67773;50.806;8.776;2023-05-27T02:52:05;100713.84;;;7.99;76.92
78485;BME280;67773;50.806;8.776;2023-05-27T02:54:31;100720.09;;;7.97;76.50
78485;BME280;67773;50.806;8.776;2023-05-27T02:56:56;100716.63;;;7.95;77.33
78485;BME280;67773;50.806;8.776;2023-05-27T02:59:21;100723.72;;;7.93;77.14
78485;BME280;67773;50.806;8.776;2023-05-27T03:01:47;100717.31;;;8.03;76.71
78485;BME280;67773;50.806;8.776;2023-05-27T03:04:12;100720.22;;;7.91;77.59
78485;BME280;67773;50.806;8.776;2023-05-27T03:06:37;100720.31;;;7.88;77.68
78485;BME280;67773;50.806;8.776;2023-05-27T03:09:03;100716.09;;;7.79;76.83
78485;BME280;67773;50.806;8.776;2023-05-27T03:11:28;100715.97;;;7.85;77.34
78485;BME280;67773;50.806;8.776;2023-05-27T03:13:54;100723.97;;;7.80;77.16
78485;BME280;67773;50.806;8.776;2023-05-27T03:16:19;100711.66;;;7.79;76.94
78485;BME280;67773;50.806;8.776;2023-05-27T03:18:45;100705.47;;;7.80;77.43
78485;BME280;67773;50.806;8.776;2023-05-27T03:21:11;100699.56;;;7.69;77.40
78485;BME280;67773;50.806;8.776;2023-05-27T03:23:36;100711.03;;;7.68;77.72
78485;BME280;67773;50.806;8.776;2023-05-27T03:26:02;100711.81;;;7.73;77.53
78485;BME280;67773;50.806;8.776;2023-05-27T03:28:27;100706.47;;;7.76;77.09
78485;BME280;67773;50.806;8.776;2023-05-27T03:30:52;100711.09;;;7.67;77.51
78485;BME280;67773;50.806;8.776;2023-05-27T03:33:23;100713.69;;;7.68;77.83
78485;BME280;67773;50.806;8.776;2023-05-27T03:35:49;100712.00;;;7.66;77.98
78485;BME280;67773;50.806;8.776;2023-05-27T03:38:15;100706.66;;;7.67;77.39
78485;BME280;67773;50.806;8.776;2023-05-27T03:40:40;100714.63;;;7.66;77.90
78485;BME280;67773;50.806;8.776;2023-05-27T03:43:05;100713.75;;;7.65;77.86
78485;BME280;67773;50.806;8.776;2023-05-27T03:45:30;100706.75;;;7.64;77.70
78485;BME280;67773;50.806;8.776;2023-05-27T03:47:56;100717.97;;;7.74;77.64
78485;BME280;67773;50.806;8.776;2023-05-27T03:50:21;100706.53;;;7.73;77.77
78485;BME280;67773;50.806;8.776;2023-05-27T03:52:46;100710.88;;;7.76;77.88
78485;BME280;67773;50.806;8.776;2023-05-27T03:55:12;100712.69;;;7.74;77.13
78485;BME280;67773;50.806;8.776;2023-05-27T03:57:37;100722.25;;;7.79;78.21
78485;BME280;67773;50.806;8.776;2023-05-27T04:00:03;100720.50;;;7.78;77.65
78485;BME280;67773;50.806;8.776;2023-05-27T04:02:33;100719.56;;;7.81;77.50
78485;BME280;67773;50.806;8.776;2023-05-27T04:04:58;100706.22;;;7.87;77.11
78485;BME280;67773;50.806;8.776;2023-05-27T04:07:24;100706.47;;;7.76;77.11
78485;BME280;67773;50.806;8.776;2023-05-27T04:09:52;100709.00;;;7.81;77.36
78485;BME280;67773;50.806;8.776;2023-05-27T04:12:17;100711.59;;;7.84;77.01
78485;BME280;67773;50.806;8.776;2023-05-27T04:14:42;100696.38;;;7.94;77.30
78485;BME280;67773;50.806;8.776;2023-05-27T04:17:07;100708.69;;;7.95;77.25
78485;BME280;67773;50.806;8.776;2023-05-27T04:19:33;100700.72;;;7.96;77.25
78485;BME280;67773;50.806;8.776;2023-05-27T04:21:59;100707.03;;;7.89;77.14
78485;BME280;67773;50.806;8.776;2023-05-27T04:24:24;100704.53;;;7.85;77.37
78485;BME280;67773;50.806;8.776;2023-05-27T04:26:50;100704.56;;;7.83;77.25
78485;BME280;67773;50.806;8.776;2023-05-27T04:29:15;100692.22;;;7.84;76.89
78485;BME280;67773;50.806;8.776;2023-05-27T04:31:40;100706.22;;;7.87;76.75
78485;BME280;67773;50.806;8.776;2023-05-27T04:34:06;100713.28;;;7.87;77.06
78485;BME280;67773;50.806;8.776;2023-05-27T04:36:31;100709.38;;;8.01;77.81
78485;BME280;67773;50.806;8.776;2023-05-27T04:38:59;100712.97;;;7.99;77.13
78485;BME280;67773;50.806;8.776;2023-05-27T04:41:26;100721.94;;;7.92;76.97
78485;BME280;67773;50.806;8.776;2023-05-27T04:43:56;100722.03;;;7.89;77.36
78485;BME280;67773;50.806;8.776;2023-05-27T04:46:27;100713.69;;;8.07;77.34
78485;BME280;67773;50.806;8.776;2023-05-27T04:48:53;100708.31;;;8.10;76.48
78485;BME280;67773;50.806;8.776;2023-05-27T04:51:19;100710.91;;;8.13;77.04
78485;BME280;67773;50.806;8.776;2023-05-27T04:53:45;100706.47;;;8.12;77.13
78485;BME280;67773;50.806;8.776;2023-05-27T04:56:10;100713.50;;;8.15;76.70
78485;BME280;67773;50.806;8.776;2023-05-27T04:58:39;100721.38;;;8.16;77.05
78485;BME280;67773;50.806;8.776;2023-05-27T05:01:04;100722.16;;;8.20;77.22
78485;BME280;67773;50.806;8.776;2023-05-27T05:03:30;100714.78;;;8.32;76.61
78485;BME280;67773;50.806;8.776;2023-05-27T05:06:04;100717.53;;;8.29;76.80
78485;BME280;67773;50.806;8.776;2023-05-27T05:08:30;100713.03;;;8.33;76.09
78485;BME280;67773;50.806;8.776;2023-05-27T05:10:55;100715.47;;;8.42;76.98
78485;BME280;67773;50.806;8.776;2023-05-27T05:13:20;100712.91;;;8.39;76.32
78485;BME280;67773;50.806;8.776;2023-05-27T05:15:46;100703.78;;;8.51;76.22
78485;BME280;67773;50.806;8.776;2023-05-27T05:18:12;100707.19;;;8.56;76.08
78485;BME280;67773;50.806;8.776;2023-05-27T05:20:37;100707.69;;;8.70;76.30
78485;BME280;67773;50.806;8.776;2023-05-27T05:23:03;100702.25;;;8.76;76.01
78485;BME280;67773;50.806;8.776;2023-05-27T05:25:28;100700.94;;;8.91;76.71
78485;BME280;67773;50.806;8.776;2023-05-27T05:27:55;100705.13;;;9.00;75.74
78485;BME280;67773;50.806;8.776;2023-05-27T05:30:21;100705.84;;;9.05;76.09
78485;BME280;67773;50.806;8.776;2023-05-27T05:32:46;100707.72;;;9.01;75.77
78485;BME280;67773;50.806;8.776;2023-05-27T05:35:12;100710.22;;;9.06;74.94
78485;BME280;67773;50.806;8.776;2023-05-27T05:37:37;100709.19;;;9.11;74.72
78485;BME280;67773;50.806;8.776;2023-05-27T05:40:03;100706.44;;;9.14;74.75
78485;BME280;67773;50.806;8.776;2023-05-27T05:42:28;100702.25;;;9.37;75.05
78485;BME280;67773;50.806;8.776;2023-05-27T05:44:53;100706.59;;;9.41;74.61
78485;BME280;67773;50.806;8.776;2023-05-27T05:47:19;100705.50;;;9.46;73.52
78485;BME280;67773;50.806;8.776;2023-05-27T05:49:44;100703.41;;;9.58;73.85
78485;BME280;67773;50.806;8.776;2023-05-27T05:52:10;100709.94;;;9.75;75.32
78485;BME280;67773;50.806;8.776;2023-05-27T05:54:35;100698.06;;;9.87;75.25
78485;BME280;67773;50.806;8.776;2023-05-27T05:57:00;100694.44;;;9.91;74.10
78485;BME280;67773;50.806;8.776;2023-05-27T05:59:26;100700.91;;;10.09;74.22
78485;BME280;67773;50.806;8.776;2023-05-27T06:01:52;100697.84;;;10.21;74.61
78485;BME280;67773;50.806;8.776;2023-05-27T06:04:17;100701.09;;;10.31;74.42
78485;BME280;67773;50.806;8.776;2023-05-27T06:06:42;100696.31;;;10.42;74.08
78485;BME280;67773;50.806;8.776;2023-05-27T06:09:08;100693.38;;;10.50;73.20
78485;BME280;67773;50.806;8.776;2023-05-27T06:11:33;100694.44;;;10.70;70.54
78485;BME280;67773;50.806;8.776;2023-05-27T06:13:59;100692.75;;;10.68;69.58
78485;BME280;67773;50.806;8.776;2023-05-27T06:16:24;100693.25;;;10.79;70.98
78485;BME280;67773;50.806;8.776;2023-05-27T06:18:50;100701.63;;;10.92;70.51
78485;BME280;67773;50.806;8.776;2023-05-27T06:21:17;100699.69;;;10.97;71.42
78485;BME280;67773;50.806;8.776;2023-05-27T06:23:42;100691.28;;;11.09;68.58
78485;BME280;67773;50.806;8.776;2023-05-27T06:26:07;100697.25;;;11.14;67.53
78485;BME280;67773;50.806;8.776;2023-05-27T06:28:33;100696.00;;;11.24;68.68
78485;BME280;67773;50.806;8.776;2023-05-27T06:30:58;100699.13;;;11.36;68.06
78485;BME280;67773;50.806;8.776;2023-05-27T06:33:23;100693.66;;;11.40;70.73
78485;BME280;67773;50.806;8.776;2023-05-27T06:35:48;100692.81;;;11.62;69.44
78485;BME280;67773;50.806;8.776;2023-05-27T06:38:14;100692.88;;;11.60;67.41
78485;BME280;67773;50.806;8.776;2023-05-27T06:40:39;100681.63;;;11.75;68.86
78485;BME280;67773;50.806;8.776;2023-05-27T06:46:10;100676.47;;;11.94;67.20
78485;BME280;67773;50.806;8.776;2023-05-27T06:48:35;100670.47;;;12.11;66.49
78485;BME280;67773;50.806;8.776;2023-05-27T06:51:01;100681.13;;;12.11;64.80
78485;BME280;67773;50.806;8.776;2023-05-27T06:53:26;100685.78;;;12.26;66.13
78485;BME280;67773;50.806;8.776;2023-05-27T06:55:51;100683.00;;;12.29;64.89
78485;BME280;67773;50.806;8.776;2023-05-27T06:58:17;100682.88;;;12.32;62.58
78485;BME280;67773;50.806;8.776;2023-05-27T07:00:42;100675.97;;;12.49;63.32
78485;BME280;67773;50.806;8.776;2023-05-27T07:03:07;100672.78;;;12.61;63.74
78485;BME280;67773;50.806;8.776;2023-05-27T07:05:33;100670.56;;;12.70;62.67
78485;BME280;67773;50.806;8.776;2023-05-27T07:07:58;100670.66;;;12.69;61.42
78485;BME280;67773;50.806;8.776;2023-05-27T07:10:23;100669.59;;;12.73;60.76
78485;BME280;67773;50.806;8.776;2023-05-27T07:12:48;100661.13;;;12.84;62.61
78485;BME280;67773;50.806;8.776;2023-05-27T07:15:14;100662.63;;;12.89;61.94
78485;BME280;67773;50.806;8.776;2023-05-27T07:17:39;100663.84;;;13.03;60.98
78485;BME280;67773;50.806;8.776;2023-05-27T07:20:05;100655.69;;;13.26;58.73
78485;BME280;67773;50.806;8.776;2023-05-27T07:22:31;100656.69;;;13.23;60.79
78485;BME280;67773;50.806;8.776;2023-05-27T07:24:57;100659.13;;;13.28;60.16
78485;BME280;67773;50.806;8.776;2023-05-27T07:27:22;100655.03;;;13.40;60.21
78485;BME280;67773;50.806;8.776;2023-05-27T07:29:47;100656.84;;;13.58;60.45
78485;BME280;67773;50.806;8.776;2023-05-27T07:32:13;100649.44;;;13.82;57.92
78485;BME280;67773;50.806;8.776;2023-05-27T07:34:38;100656.38;;;13.86;58.44
78485;BME280;67773;50.806;8.776;2023-05-27T07:37:03;100641.28;;;13.85;57.53
78485;BME280;67773;50.806;8.776;2023-05-27T07:39:29;100644.75;;;13.87;59.25
78485;BME280;67773;50.806;8.776;2023-05-27T07:41:54;100635.50;;;13.94;57.79
78485;BME280;67773;50.806;8.776;2023-05-27T07:44:19;100629.25;;;14.12;58.54
78485;BME280;67773;50.806;8.776;2023-05-27T07:46:45;100625.72;;;14.12;55.14
78485;BME280;67773;50.806;8.776;2023-05-27T07:49:10;100629.25;;;14.12;55.16
78485;BME280;67773;50.806;8.776;2023-05-27T07:51:35;100622.34;;;14.26;54.45
78485;BME280;67773;50.806;8.776;2023-05-27T07:54:01;100628.53;;;14.26;54.50
78485;BME280;67773;50.806;8.776;2023-05-27T07:56:26;100631.63;;;14.53;54.50
78485;BME280;67773;50.806;8.776;2023-05-27T07:58:52;100630.91;;;14.67;53.27
78485;BME280;67773;50.806;8.776;2023-05-27T08:01:17;100628.78;;;14.73;52.39
78485;BME280;67773;50.806;8.776;2023-05-27T08:03:42;100615.16;;;14.78;52.27
78485;BME280;67773;50.806;8.776;2023-05-27T08:06:08;100612.09;;;14.86;53.28
78485;BME280;67773;50.806;8.776;2023-05-27T08:08:33;100603.53;;;15.12;51.77
78485;BME280;67773;50.806;8.776;2023-05-27T08:10:58;100614.22;;;15.12;53.66
78485;BME280;67773;50.806;8.776;2023-05-27T08:13:24;100619.22;;;15.18;52.42
78485;BME280;67773;50.806;8.776;2023-05-27T08:15:49;100603.72;;;15.25;52.80
78485;BME280;67773;50.806;8.776;2023-05-27T08:18:14;100598.56;;;15.53;52.52
78485;BME280;67773;50.806;8.776;2023-05-27T08:20:40;100596.88;;;15.51;51.42
78485;BME280;67773;50.806;8.776;2023-05-27T08:23:05;100586.13;;;15.68;51.03
78485;BME280;67773;50.806;8.776;2023-05-27T08:25:30;100578.97;;;15.69;50.89
78485;BME280;67773;50.806;8.776;2023-05-27T08:27:56;100576.53;;;15.80;48.79
78485;BME280;67773;50.806;8.776;2023-05-27T08:30:27;100573.66;;;16.13;49.96
78485;BME280;67773;50.806;8.776;2023-05-27T08:32:54;100564.91;;;16.25;47.43
78485;BME280;67773;50.806;8.776;2023-05-27T08:35:19;100562.25;;;16.39;47.91
78485;BME280;67773;50.806;8.776;2023-05-27T08:37:45;100566.47;;;16.43;45.78
78485;BME280;67773;50.806;8.776;2023-05-27T08:40:13;100566.00;;;16.51;45.43
78485;BME280;67773;50.806;8.776;2023-05-27T08:42:40;100564.06;;;16.69;45.36
78485;BME280;67773;50.806;8.776;2023-05-27T08:45:06;100560.41;;;16.84;45.36
78485;BME280;67773;50.806;8.776;2023-05-27T08:47:32;100555.63;;;16.89;44.91
78485;BME280;67773;50.806;8.776;2023-05-27T08:49:57;100557.91;;;17.10;44.06
78485;BME280;67773;50.806;8.776;2023-05-27T08:52:28;100551.16;;;17.17;45.89
78485;BME280;67773;50.806;8.776;2023-05-27T08:54:56;100556.09;;;17.37;44.40
78485;BME280;67773;50.806;8.776;2023-05-27T08:57:27;100548.97;;;17.50;44.10
78485;BME280;67773;50.806;8.776;2023-05-27T08:59:53;100545.56;;;17.75;43.53
78485;BME280;67773;50.806;8.776;2023-05-27T09:02:20;100545.97;;;17.96;42.34
78485;BME280;67773;50.806;8.776;2023-05-27T09:04:46;100540.84;;;18.18;42.44
78485;BME280;67773;50.806;8.776;2023-05-27T09:07:12;100541.41;;;18.24;41.54
78485;BME280;67773;50.806;8.776;2023-05-27T09:09:38;100538.03;;;18.20;41.46
78485;BME280;67773;50.806;8.776;2023-05-27T09:12:04;100537.63;;;18.52;40.70
78485;BME280;67773;50.806;8.776;2023-05-27T09:14:31;100541.88;;;18.68;40.50
78485;BME280;67773;50.806;8.776;2023-05-27T09:16:57;100528.81;;;18.88;40.68
78485;BME280;67773;50.806;8.776;2023-05-27T09:19:22;100529.25;;;18.82;40.35
78485;BME280;67773;50.806;8.776;2023-05-27T09:21:51;100531.22;;;19.16;39.66
78485;BME280;67773;50.806;8.776;2023-05-27T09:24:16;100535.31;;;19.46;37.11
78485;BME280;67773;50.806;8.776;2023-05-27T09:26:42;100520.28;;;19.67;38.55
78485;BME280;67773;50.806;8.776;2023-05-27T09:29:08;100530.59;;;20.08;36.63
78485;BME280;67773;50.806;8.776;2023-05-27T09:31:41;100530.66;;;20.31;37.91
78485;BME280;67773;50.806;8.776;2023-05-27T09:34:14;100535.28;;;20.53;36.67
78485;BME280;67773;50.806;8.776;2023-05-27T09:36:47;100515.31;;;20.89;35.34
78485;BME280;67773;50.806;8.776;2023-05-27T09:39:14;100511.81;;;24.08;32.23
78485;BME280;67773;50.806;8.776;2023-05-27T09:41:40;100495.84;;;28.26;25.40
78485;BME280;67773;50.806;8.776;2023-05-27T09:44:05;100494.25;;;30.87;20.50
78485;BME280;67773;50.806;8.776;2023-05-27T09:46:34;100481.19;;;31.54;19.57
78485;BME280;67773;50.806;8.776;2023-05-27T09:49:00;100480.66;;;32.58;18.48
78485;BME280;67773;50.806;8.776;2023-05-27T09:51:28;100481.13;;;33.02;18.16
78485;BME280;67773;50.806;8.776;2023-05-27T09:53:54;100479.31;;;33.97;18.34
78485;BME280;67773;50.806;8.776;2023-05-27T09:56:26;100478.56;;;35.08;16.37
78485;BME280;67773;50.806;8.776;2023-05-27T09:58:56;100460.75;;;36.11;14.09
78485;BME280;67773;50.806;8.776;2023-05-27T10:01:24;100461.13;;;36.15;16.30
78485;BME280;67773;50.806;8.776;2023-05-27T10:03:51;100453.38;;;36.67;14.40
78485;BME280;67773;50.806;8.776;2023-05-27T10:06:17;100455.91;;;36.25;14.64
78485;BME280;67773;50.806;8.776;2023-05-27T10:08:43;100456.28;;;36.35;15.29
78485;BME280;67773;50.806;8.776;2023-05-27T10:11:12;100449.31;;;37.24;13.34
78485;BME280;67773;50.806;8.776;2023-05-27T10:13:38;100448.31;;;36.46;18.34
78485;BME280;67773;50.806;8.776;2023-05-27T10:16:03;100448.81;;;36.97;13.89
78485;BME280;67773;50.806;8.776;2023-05-27T10:18:30;100438.41;;;36.38;14.22
78485;BME280;67773;50.806;8.776;2023-05-27T10:20:59;100433.72;;;36.57;14.35
78485;BME280;67773;50.806;8.776;2023-05-27T10:23:26;100430.34;;;36.73;12.77
78485;BME280;67773;50.806;8.776;2023-05-27T10:26:04;100422.97;;;36.49;13.83
78485;BME280;67773;50.806;8.776;2023-05-27T10:28:36;100429.84;;;35.65;17.51
78485;BME280;67773;50.806;8.776;2023-05-27T10:31:16;100428.75;;;36.22;16.15
78485;BME280;67773;50.806;8.776;2023-05-27T10:33:47;100429.19;;;36.62;13.94
78485;BME280;67773;50.806;8.776;2023-05-27T10:36:23;100428.97;;;37.61;13.40
78485;BME280;67773;50.806;8.776;2023-05-27T10:39:00;100421.25;;;37.21;12.72
78485;BME280;67773;50.806;8.776;2023-05-27T10:41:26;100419.44;;;36.96;13.56
78485;BME280;67773;50.806;8.776;2023-05-27T10:43:58;100411.06;;;37.63;13.65
78485;BME280;67773;50.806;8.776;2023-05-27T10:46:25;100412.97;;;36.66;13.46
78485;BME280;67773;50.806;8.776;2023-05-27T10:48:51;100409.91;;;35.24;17.00
78485;BME280;67773;50.806;8.776;2023-05-27T10:51:16;100409.16;;;36.49;16.26
78485;BME280;67773;50.806;8.776;2023-05-27T10:53:41;100404.22;;;36.87;16.08
78485;BME280;67773;50.806;8.776;2023-05-27T10:56:07;100400.09;;;37.68;16.47
78485;BME280;67773;50.806;8.776;2023-05-27T10:58:37;100403.84;;;37.74;15.67
78485;BME280;67773;50.806;8.776;2023-05-27T11:01:10;100403.53;;;37.10;13.49
78485;BME280;67773;50.806;8.776;2023-05-27T11:03:41;100407.97;;;37.11;14.26
78485;BME280;67773;50.806;8.776;2023-05-27T11:06:07;100395.41;;;37.69;14.03
78485;BME280;67773;50.806;8.776;2023-05-27T11:08:33;100392.59;;;37.27;13.51
78485;BME280;67773;50.806;8.776;2023-05-27T11:11:01;100385.09;;;38.11;13.44
78485;BME280;67773;50.806;8.776;2023-05-27T11:13:47;100377.00;;;38.56;12.00
78485;BME280;67773;50.806;8.776;2023-05-27T11:16:13;100373.88;;;37.82;12.45
78485;BME280;67773;50.806;8.776;2023-05-27T11:18:44;100376.19;;;37.14;14.62
78485;BME280;67773;50.806;8.776;2023-05-27T11:21:11;100362.00;;;37.10;14.03
78485;BME280;67773;50.806;8.776;2023-05-27T11:23:44;100359.19;;;37.94;13.12
78485;BME280;67773;50.806;8.776;2023-05-27T11:26:13;100350.44;;;37.55;13.70
78485;BME280;67773;50.806;8.776;2023-05-27T11:28:45;100353.97;;;36.90;15.46
78485;BME280;67773;50.806;8.776;2023-05-27T11:31:10;100355.97;;;36.47;16.88
78485;BME280;67773;50.806;8.776;2023-05-27T11:33:40;100339.91;;;37.75;12.49
78485;BME280;67773;50.806;8.776;2023-05-27T11:36:06;100353.09;;;37.20;13.73
78485;BME280;67773;50.806;8.776;2023-05-27T11:41:12;100346.94;;;38.53;13.25
78485;BME280;67773;50.806;8.776;2023-05-27T11:43:49;100349.47;;;38.78;11.60
78485;BME280;67773;50.806;8.776;2023-05-27T11:46:16;100346.94;;;38.53;12.60
78485;BME280;67773;50.806;8.776;2023-05-27T11:48:41;100341.63;;;38.63;12.62
78485;BME280;67773;50.806;8.776;2023-05-27T11:51:07;100338.78;;;38.11;13.04
78485;BME280;67773;50.806;8.776;2023-05-27T11:53:32;100327.00;;;37.81;14.19
78485;BME280;67773;50.806;8.776;2023-05-27T11:55:59;100330.00;;;37.26;14.01
78485;BME280;67773;50.806;8.776;2023-05-27T11:58:24;100327.06;;;37.51;14.28
78485;BME280;67773;50.806;8.776;2023-05-27T12:00:50;100330.22;;;37.66;13.62
78485;BME280;67773;50.806;8.776;2023-05-27T12:03:15;100316.00;;;39.47;11.53
78485;BME280;67773;50.806;8.776;2023-05-27T12:05:41;100320.75;;;37.97;13.54
78485;BME280;67773;50.806;8.776;2023-05-27T12:08:07;100314.44;;;37.43;12.26
78485;BME280;67773;50.806;8.776;2023-05-27T12:10:32;100319.25;;;37.60;14.08
78485;BME280;67773;50.806;8.776;2023-05-27T12:13:04;100309.94;;;37.31;14.36
78485;BME280;67773;50.806;8.776;2023-05-27T12:15:29;100306.09;;;37.32;14.08
78485;BME280;67773;50.806;8.776;2023-05-27T12:17:55;100304.31;;;37.61;13.98
78485;BME280;67773;50.806;8.776;2023-05-27T12:20:20;100299.16;;;37.52;15.53
78485;BME280;67773;50.806;8.776;2023-05-27T12:22:46;100296.31;;;37.29;14.80
78485;BME280;67773;50.806;8.776;2023-05-27T12:25:11;100297.88;;;36.65;15.98
78485;BME280;67773;50.806;8.776;2023-05-27T12:27:36;100281.94;;;36.49;14.88
78485;BME280;67773;50.806;8.776;2023-05-27T12:30:02;100282.41;;;37.82;13.62
78485;BME280;67773;50.806;8.776;2023-05-27T12:32:27;100270.72;;;37.57;15.56
78485;BME280;67773;50.806;8.776;2023-05-27T12:34:53;100267.41;;;36.35;14.58
78485;BME280;67773;50.806;8.776;2023-05-27T12:37:18;100275.06;;;36.33;15.06
78485;BME280;67773;50.806;8.776;2023-05-27T12:39:43;100277.28;;;36.06;14.51
78485;BME280;67773;50.806;8.776;2023-05-27T12:42:09;100259.56;;;37.10;12.42
78485;BME280;67773;50.806;8.776;2023-05-27T12:44:34;100268.56;;;36.46;14.39
78485;BME280;67773;50.806;8.776;2023-05-27T12:47:00;100267.44;;;36.65;13.51
78485;BME280;67773;50.806;8.776;2023-05-27T12:49:25;100261.47;;;37.10;12.29
78485;BME280;67773;50.806;8.776;2023-05-27T12:51:50;100267.53;;;36.88;17.38
78485;BME280;67773;50.806;8.776;2023-05-27T12:54:16;100259.53;;;36.38;15.56
78485;BME280;67773;50.806;8.776;2023-05-27T12:56:41;100256.88;;;36.43;14.19
78485;BME280;67773;50.806;8.776;2023-05-27T12:59:06;100253.66;;;36.10;13.25